createdAt,value
2022-07-31T00:00:23.244Z,100.00
2022-07-31T00:02:49.850Z,100.00
2022-07-31T00:05:16.542Z,100.00
2022-07-31T00:07:43.420Z,100.00
2022-07-31T00:10:10.220Z,100.00
2022-07-31T00:12:36.758Z,100.00
2022-07-31T00:15:06.161Z,100.00
2022-07-31T00:17:33.358Z,100.00
2022-07-31T00:20:00.012Z,100.00
2022-07-31T00:22:26.641Z,100.00
2022-07-31T00:24:53.266Z,100.00
2022-07-31T00:27:19.765Z,100.00
2022-07-31T00:29:46.479Z,100.00
2022-07-31T00:32:13.154Z,100.00
2022-07-31T00:34:39.708Z,100.00
2022-07-31T00:37:06.588Z,100.00
2022-07-31T00:39:33.535Z,100.00
2022-07-31T00:42:00.150Z,100.00
2022-07-31T00:44:26.765Z,100.00
2022-07-31T00:46:53.420Z,100.00
2022-07-31T00:49:20.320Z,100.00
2022-07-31T00:51:48.220Z,100.00
2022-07-31T00:54:22.438Z,100.00
2022-07-31T00:56:50.463Z,100.00
2022-07-31T00:59:24.398Z,100.00
2022-07-31T01:01:51.860Z,100.00
2022-07-31T01:04:19.818Z,100.00
2022-07-31T01:06:47.642Z,100.00
2022-07-31T01:09:14.888Z,100.00
2022-07-31T01:12:08.969Z,100.00
2022-07-31T01:14:40.860Z,100.00
2022-07-31T01:17:10.548Z,100.00
2022-07-31T01:19:43.525Z,100.00
2022-07-31T01:22:35.139Z,100.00
2022-07-31T01:25:26.574Z,100.00
2022-07-31T01:28:07.060Z,100.00
2022-07-31T01:31:00.420Z,100.00
2022-07-31T01:33:48.673Z,100.00
2022-07-31T01:36:22.816Z,100.00
2022-07-31T01:38:52.209Z,100.00
2022-07-31T01:41:24.442Z,100.00
2022-07-31T01:43:54.512Z,100.00
2022-07-31T01:46:22.333Z,100.00
2022-07-31T01:48:50.179Z,100.00
2022-07-31T01:51:18.836Z,100.00
2022-07-31T01:53:47.449Z,100.00
2022-07-31T01:56:17.682Z,100.00
2022-07-31T01:58:46.929Z,100.00
2022-07-31T02:01:14.749Z,100.00
2022-07-31T02:03:45.283Z,100.00
2022-07-31T02:06:15.003Z,100.00
2022-07-31T02:08:45.024Z,100.00
2022-07-31T02:11:12.085Z,100.00
2022-07-31T02:13:38.895Z,100.00
2022-07-31T02:16:06.627Z,100.00
2022-07-31T02:18:34.355Z,100.00
2022-07-31T02:21:01.041Z,100.00
2022-07-31T02:23:27.711Z,100.00
2022-07-31T02:25:54.863Z,100.00
2022-07-31T02:28:22.951Z,100.00
2022-07-31T02:30:50.892Z,100.00
2022-07-31T02:33:21.447Z,100.00
2022-07-31T02:35:54.137Z,100.00
2022-07-31T02:38:23.947Z,100.00
2022-07-31T02:40:53.809Z,100.00
2022-07-31T02:43:21.277Z,100.00
2022-07-31T02:45:48.349Z,100.00
2022-07-31T02:48:15.577Z,100.00
2022-07-31T02:50:43.031Z,100.00
2022-07-31T02:53:09.843Z,100.00
2022-07-31T02:55:37.158Z,100.00
2022-07-31T02:58:03.871Z,100.00
2022-07-31T03:00:31.029Z,100.00
2022-07-31T03:02:58.433Z,100.00
2022-07-31T03:05:25.199Z,100.00
2022-07-31T03:07:51.945Z,100.00
2022-07-31T03:10:19.051Z,100.00
2022-07-31T03:12:51.940Z,100.00
2022-07-31T03:15:21.168Z,100.00
2022-07-31T03:17:49.180Z,100.00
2022-07-31T03:20:16.827Z,100.00
2022-07-31T03:22:44.536Z,100.00
2022-07-31T03:25:11.594Z,100.00
2022-07-31T03:27:56.433Z,100.00
2022-07-31T03:30:25.339Z,100.00
2022-07-31T03:32:53.140Z,100.00
2022-07-31T03:35:19.745Z,100.00
2022-07-31T03:37:46.393Z,100.00
2022-07-31T03:40:13.292Z,100.00
2022-07-31T03:42:40.101Z,100.00
2022-07-31T03:45:07.681Z,100.00
2022-07-31T03:47:34.351Z,100.00
2022-07-31T03:50:02.289Z,100.00
2022-07-31T03:52:31.294Z,100.00
2022-07-31T03:54:58.138Z,100.00
2022-07-31T03:57:29.132Z,100.00
2022-07-31T04:00:01.823Z,100.00
2022-07-31T04:02:29.361Z,100.00
2022-07-31T04:04:57.344Z,100.00
2022-07-31T04:07:24.612Z,100.00
2022-07-31T04:09:51.692Z,100.00
2022-07-31T04:12:18.526Z,100.00
2022-07-31T04:14:45.815Z,100.00
2022-07-31T04:17:12.617Z,100.00
2022-07-31T04:19:39.474Z,100.00
2022-07-31T04:22:07.026Z,100.00
2022-07-31T04:24:34.021Z,100.00
2022-07-31T04:27:00.931Z,100.00
2022-07-31T04:29:28.926Z,100.00
2022-07-31T04:31:56.326Z,100.00
2022-07-31T04:34:23.095Z,100.00
2022-07-31T04:36:49.924Z,100.00
2022-07-31T04:39:16.734Z,100.00
2022-07-31T04:41:43.407Z,100.00
2022-07-31T04:44:10.611Z,100.00
2022-07-31T04:46:37.382Z,100.00
2022-07-31T04:49:04.241Z,100.00
2022-07-31T04:51:30.892Z,100.00
2022-07-31T04:53:57.452Z,100.00
2022-07-31T04:56:42.412Z,100.00
2022-07-31T04:59:14.904Z,100.00
2022-07-31T05:01:43.222Z,100.00
2022-07-31T05:04:10.481Z,100.00
2022-07-31T05:06:41.980Z,100.00
2022-07-31T05:09:18.412Z,100.00
2022-07-31T05:11:46.517Z,100.00
2022-07-31T05:14:14.602Z,99.24
2022-07-31T05:16:41.155Z,97.30
2022-07-31T05:19:13.842Z,95.80
2022-07-31T05:21:53.027Z,94.46
2022-07-31T05:24:32.818Z,95.40
2022-07-31T05:27:02.779Z,95.58
2022-07-31T05:29:30.374Z,95.53
2022-07-31T05:31:59.782Z,94.60
2022-07-31T05:34:30.805Z,94.41
2022-07-31T05:37:01.257Z,94.83
2022-07-31T05:39:28.708Z,94.68
2022-07-31T05:41:55.301Z,94.51
2022-07-31T05:44:21.981Z,93.30
2022-07-31T05:46:48.611Z,93.70
2022-07-31T05:49:15.334Z,93.63
2022-07-31T05:51:46.788Z,92.91
2022-07-31T05:54:13.676Z,92.11
2022-07-31T05:56:40.429Z,91.12
2022-07-31T05:59:07.136Z,91.40
2022-07-31T06:01:33.835Z,90.54
2022-07-31T06:04:00.409Z,90.78
2022-07-31T06:06:27.031Z,90.13
2022-07-31T06:08:53.683Z,89.75
2022-07-31T06:11:20.783Z,89.71
2022-07-31T06:13:47.469Z,88.58
2022-07-31T06:16:15.394Z,87.99
2022-07-31T06:18:42.650Z,88.34
2022-07-31T06:21:09.887Z,86.71
2022-07-31T06:23:36.766Z,85.74
2022-07-31T06:26:04.020Z,85.93
2022-07-31T06:28:47.662Z,85.43
2022-07-31T06:31:20.503Z,85.69
2022-07-31T06:33:48.494Z,84.29
2022-07-31T06:36:16.260Z,84.26
2022-07-31T06:38:42.980Z,83.92
2022-07-31T06:41:09.963Z,83.17
2022-07-31T06:43:36.909Z,82.79
2022-07-31T06:46:03.556Z,83.99
2022-07-31T06:48:30.135Z,83.89
2022-07-31T06:51:21.060Z,83.76
2022-07-31T06:53:43.504Z,83.02
2022-07-31T06:56:10.375Z,82.48
2022-07-31T06:58:37.007Z,82.33
2022-07-31T07:01:03.785Z,78.59
2022-07-31T07:03:30.475Z,77.10
2022-07-31T07:05:57.243Z,74.48
2022-07-31T07:08:23.820Z,72.55
2022-07-31T07:10:50.376Z,72.35
2022-07-31T07:13:17.102Z,71.27
2022-07-31T07:15:43.723Z,70.40
2022-07-31T07:18:10.414Z,69.30
2022-07-31T07:20:37.266Z,66.05
2022-07-31T07:23:03.967Z,66.17
2022-07-31T07:25:30.766Z,64.46
2022-07-31T07:27:57.542Z,64.68
2022-07-31T07:30:25.307Z,64.74
2022-07-31T07:32:52.010Z,65.33
2022-07-31T07:35:18.718Z,65.59
2022-07-31T07:37:45.322Z,65.16
2022-07-31T07:40:12.232Z,63.71
2022-07-31T07:42:38.789Z,66.25
2022-07-31T07:45:07.868Z,65.59
2022-07-31T07:47:53.739Z,66.31
2022-07-31T07:50:29.094Z,64.98
2022-07-31T07:52:56.506Z,65.28
2022-07-31T07:55:23.580Z,65.92
2022-07-31T07:57:50.372Z,67.01
2022-07-31T08:00:17.007Z,66.50
2022-07-31T08:03:46.390Z,66.00
2022-07-31T08:05:35.411Z,66.87
2022-07-31T08:08:03.139Z,66.40
2022-07-31T08:10:29.992Z,66.68
2022-07-31T08:12:57.764Z,66.26
2022-07-31T08:15:24.818Z,65.74
2022-07-31T08:17:52.024Z,64.62
2022-07-31T08:20:18.674Z,66.28
2022-07-31T08:22:45.318Z,66.15
2022-07-31T08:25:14.318Z,65.20
2022-07-31T08:27:41.908Z,63.13
2022-07-31T08:30:09.009Z,60.18
2022-07-31T08:32:36.365Z,59.26
2022-07-31T08:35:03.114Z,58.31
2022-07-31T08:38:01.210Z,56.74
2022-07-31T08:40:18.761Z,56.17
2022-07-31T08:42:46.499Z,56.08
2022-07-31T08:45:13.936Z,55.04
2022-07-31T08:47:42.330Z,55.04
2022-07-31T08:50:10.353Z,54.78
2022-07-31T08:52:37.621Z,54.17
2022-07-31T08:55:08.428Z,53.65
2022-07-31T08:57:36.762Z,54.54
2022-07-31T09:00:09.920Z,53.88
2022-07-31T09:02:39.522Z,53.69
2022-07-31T09:05:06.478Z,53.08
2022-07-31T09:07:33.061Z,52.46
2022-07-31T09:09:59.594Z,54.59
2022-07-31T09:12:33.890Z,52.62
2022-07-31T09:15:00.941Z,54.80
2022-07-31T09:17:35.649Z,52.33
2022-07-31T09:20:03.824Z,53.19
2022-07-31T09:22:31.391Z,54.69
2022-07-31T09:25:12.345Z,53.76
2022-07-31T09:27:39.418Z,54.16
2022-07-31T09:30:07.615Z,54.89
2022-07-31T09:32:34.316Z,54.37
2022-07-31T09:35:11.994Z,54.03
2022-07-31T09:37:39.411Z,54.28
2022-07-31T09:40:08.025Z,52.78
2022-07-31T09:42:46.083Z,53.34
2022-07-31T09:45:24.408Z,53.07
2022-07-31T09:48:12.394Z,55.08
2022-07-31T09:50:54.003Z,55.77
2022-07-31T09:53:21.210Z,54.70
2022-07-31T09:55:52.106Z,54.57
2022-07-31T09:58:18.846Z,54.19
2022-07-31T10:00:52.623Z,52.13
2022-07-31T10:03:20.299Z,52.95
2022-07-31T10:05:47.990Z,52.99
2022-07-31T10:08:15.247Z,53.47
2022-07-31T10:10:46.032Z,53.13
2022-07-31T10:13:15.554Z,52.35
2022-07-31T10:15:45.760Z,53.73
2022-07-31T10:18:13.248Z,52.45
2022-07-31T10:20:44.049Z,53.02
2022-07-31T10:23:19.849Z,53.91
2022-07-31T10:25:53.322Z,52.43
2022-07-31T10:28:21.608Z,52.25
2022-07-31T10:30:49.349Z,53.38
2022-07-31T10:33:41.938Z,52.92
2022-07-31T10:36:12.353Z,52.81
2022-07-31T10:38:47.719Z,51.98
2022-07-31T10:41:31.905Z,51.13
2022-07-31T10:44:08.287Z,51.65
2022-07-31T10:46:34.921Z,51.40
2022-07-31T10:49:01.736Z,51.49
2022-07-31T10:51:46.612Z,51.66
2022-07-31T10:54:14.500Z,52.90
2022-07-31T10:56:46.388Z,50.92
2022-07-31T10:59:13.644Z,50.20
2022-07-31T11:01:52.890Z,49.26
2022-07-31T11:04:34.877Z,49.28
2022-07-31T11:07:01.524Z,49.29
2022-07-31T11:09:29.349Z,46.92
2022-07-31T11:11:56.620Z,47.54
2022-07-31T11:14:34.631Z,47.93
2022-07-31T11:17:01.536Z,48.11
2022-07-31T11:19:41.106Z,48.56
2022-07-31T11:22:32.053Z,49.55
2022-07-31T11:25:00.811Z,50.35
2022-07-31T11:27:32.340Z,48.27
2022-07-31T11:30:13.055Z,47.87
2022-07-31T11:32:41.169Z,49.22
2022-07-31T11:35:08.463Z,49.54
2022-07-31T11:37:45.328Z,48.63
2022-07-31T11:40:27.384Z,48.34
2022-07-31T11:43:24.277Z,48.05
2022-07-31T11:45:50.214Z,49.05
2022-07-31T11:48:19.316Z,49.82
2022-07-31T11:50:47.542Z,50.35
2022-07-31T11:53:14.237Z,49.97
2022-07-31T11:55:49.378Z,50.52
2022-07-31T11:58:17.636Z,48.85
2022-07-31T12:01:01.831Z,48.62
2022-07-31T12:03:34.853Z,50.04
2022-07-31T12:06:01.680Z,50.02
2022-07-31T12:08:29.531Z,50.55
2022-07-31T12:10:58.121Z,50.73
2022-07-31T12:13:25.542Z,49.59
2022-07-31T12:16:09.785Z,50.33
2022-07-31T12:18:48.985Z,49.25
2022-07-31T12:21:16.932Z,48.69
2022-07-31T12:23:48.086Z,49.55
2022-07-31T12:26:25.208Z,49.03
2022-07-31T12:29:02.175Z,49.42
2022-07-31T12:31:30.367Z,49.33
2022-07-31T12:33:57.012Z,49.78
2022-07-31T12:36:23.676Z,50.11
2022-07-31T12:39:05.089Z,50.21
2022-07-31T12:41:42.140Z,50.27
2022-07-31T12:44:14.376Z,49.56
2022-07-31T12:46:41.759Z,48.87
2022-07-31T12:49:08.829Z,48.79
2022-07-31T12:51:44.666Z,49.70
2022-07-31T12:54:15.112Z,49.39
2022-07-31T12:56:42.198Z,48.92
2022-07-31T12:59:09.854Z,49.60
2022-07-31T13:01:37.274Z,50.27
2022-07-31T13:04:08.102Z,50.80
2022-07-31T13:06:48.493Z,50.48
2022-07-31T13:09:15.296Z,50.17
2022-07-31T13:11:46.010Z,49.84
2022-07-31T13:14:18.921Z,49.36
2022-07-31T13:16:46.699Z,49.85
2022-07-31T13:19:14.243Z,49.83
2022-07-31T13:21:49.261Z,51.25
2022-07-31T13:24:18.149Z,50.71
2022-07-31T13:26:45.589Z,50.53
2022-07-31T13:29:12.586Z,51.03
2022-07-31T13:31:39.443Z,51.05
2022-07-31T13:34:06.343Z,51.92
2022-07-31T13:36:38.767Z,51.32
2022-07-31T13:39:09.457Z,50.67
2022-07-31T13:41:36.640Z,50.51
2022-07-31T13:44:06.540Z,51.09
2022-07-31T13:46:33.129Z,50.44
2022-07-31T13:49:01.940Z,50.36
2022-07-31T13:51:29.482Z,49.81
2022-07-31T13:53:56.258Z,49.88
2022-07-31T13:56:38.968Z,49.81
2022-07-31T13:59:11.326Z,49.01
2022-07-31T14:02:03.063Z,48.06
2022-07-31T14:04:25.279Z,48.12
2022-07-31T14:06:51.856Z,48.45
2022-07-31T14:09:19.431Z,48.04
2022-07-31T14:11:46.080Z,48.42
2022-07-31T14:14:16.072Z,46.85
2022-07-31T14:16:49.568Z,47.99
2022-07-31T14:19:16.050Z,47.42
2022-07-31T14:21:56.402Z,48.38
2022-07-31T14:24:26.138Z,48.20
2022-07-31T14:26:52.825Z,48.62
2022-07-31T14:29:19.665Z,48.60
2022-07-31T14:31:46.177Z,48.29
2022-07-31T14:34:12.731Z,47.72
2022-07-31T14:36:39.250Z,48.42
2022-07-31T14:39:05.777Z,48.07
2022-07-31T14:41:32.244Z,49.10
2022-07-31T14:43:58.734Z,49.15
2022-07-31T14:46:25.242Z,50.36
2022-07-31T14:48:51.913Z,51.36
2022-07-31T14:51:19.049Z,51.48
2022-07-31T14:53:48.606Z,51.83
2022-07-31T14:56:27.344Z,52.45
2022-07-31T14:59:01.110Z,52.26
2022-07-31T15:01:30.905Z,53.23
2022-07-31T15:03:57.945Z,52.77
2022-07-31T15:06:39.734Z,55.88
2022-07-31T15:09:11.984Z,57.68
2022-07-31T15:11:58.423Z,60.27
2022-07-31T15:14:28.623Z,58.57
2022-07-31T15:16:55.138Z,57.32
2022-07-31T15:19:21.612Z,59.41
2022-07-31T15:22:09.985Z,62.12
2022-07-31T15:24:34.724Z,63.25
2022-07-31T15:27:01.217Z,62.69
2022-07-31T15:30:04.798Z,61.80
2022-07-31T15:32:14.375Z,62.05
2022-07-31T15:34:40.992Z,62.05
2022-07-31T15:37:07.954Z,63.70
2022-07-31T15:39:34.660Z,63.51
2022-07-31T15:42:02.141Z,63.60
2022-07-31T15:44:29.130Z,61.27
2022-07-31T15:46:56.111Z,60.01
2022-07-31T15:49:22.811Z,59.54
2022-07-31T15:51:49.536Z,58.50
2022-07-31T15:54:16.355Z,57.88
2022-07-31T15:56:43.086Z,58.01
2022-07-31T15:59:09.697Z,57.58
2022-07-31T16:01:37.736Z,57.98
2022-07-31T16:04:16.343Z,58.45
2022-07-31T16:06:49.024Z,58.60
2022-07-31T16:09:17.127Z,58.84
2022-07-31T16:12:03.810Z,58.72
2022-07-31T16:14:30.282Z,60.77
2022-07-31T16:16:57.525Z,59.96
2022-07-31T16:19:25.184Z,59.54
2022-07-31T16:21:55.311Z,59.37
2022-07-31T16:24:22.769Z,59.31
2022-07-31T16:26:49.736Z,59.07
2022-07-31T16:29:17.789Z,59.00
2022-07-31T16:32:04.036Z,59.40
2022-07-31T16:34:30.657Z,59.29
2022-07-31T16:36:57.252Z,59.71
2022-07-31T16:39:24.053Z,59.90
2022-07-31T16:41:54.331Z,61.39
2022-07-31T16:44:21.415Z,62.52
2022-07-31T16:46:52.783Z,63.12
2022-07-31T16:49:35.249Z,65.56
2022-07-31T16:52:05.080Z,65.27
2022-07-31T16:54:31.591Z,64.05
2022-07-31T16:56:58.071Z,63.98
2022-07-31T16:59:24.604Z,66.05
2022-07-31T17:01:59.657Z,66.36
2022-07-31T17:04:27.911Z,64.06
2022-07-31T17:06:55.508Z,63.94
2022-07-31T17:09:22.266Z,62.76
2022-07-31T17:11:55.244Z,63.15
2022-07-31T17:14:25.668Z,64.26
2022-07-31T17:16:54.266Z,64.44
2022-07-31T17:19:42.332Z,64.29
2022-07-31T17:22:11.232Z,64.08
2022-07-31T17:24:39.023Z,64.11
2022-07-31T17:27:07.469Z,64.99
2022-07-31T17:29:34.971Z,65.23
2022-07-31T17:32:01.600Z,67.03
2022-07-31T17:34:28.185Z,67.48
2022-07-31T17:36:54.895Z,67.43
2022-07-31T17:39:21.407Z,68.55
2022-07-31T17:41:47.946Z,70.49
2022-07-31T17:44:14.874Z,71.17
2022-07-31T17:46:43.855Z,70.50
2022-07-31T17:49:20.158Z,70.76
2022-07-31T17:51:59.196Z,70.62
2022-07-31T17:54:31.596Z,69.23
2022-07-31T17:57:01.091Z,69.62
2022-07-31T17:59:28.572Z,70.99
2022-07-31T18:02:04.796Z,71.58
2022-07-31T18:04:33.951Z,72.37
2022-07-31T18:07:02.051Z,72.52
2022-07-31T18:09:28.786Z,75.06
2022-07-31T18:11:56.429Z,75.62
2022-07-31T18:14:24.526Z,74.35
2022-07-31T18:16:51.274Z,73.34
2022-07-31T18:19:18.352Z,73.60
2022-07-31T18:21:44.881Z,73.94
2022-07-31T18:24:11.358Z,71.30
2022-07-31T18:26:39.168Z,69.34
2022-07-31T18:29:05.672Z,68.66
2022-07-31T18:31:35.496Z,68.44
2022-07-31T18:34:04.410Z,67.47
2022-07-31T18:36:34.742Z,67.53
2022-07-31T18:39:01.811Z,68.86
2022-07-31T18:41:28.433Z,68.34
2022-07-31T18:43:55.408Z,70.68
2022-07-31T18:46:23.825Z,71.97
2022-07-31T18:48:55.433Z,70.69
2022-07-31T18:51:23.280Z,70.29
2022-07-31T18:53:50.193Z,70.55
2022-07-31T18:56:17.653Z,71.99
2022-07-31T18:58:45.085Z,72.31
2022-07-31T19:01:11.779Z,71.70
2022-07-31T19:03:38.447Z,72.33
2022-07-31T19:06:05.091Z,72.18
2022-07-31T19:08:31.924Z,72.97
2022-07-31T19:10:58.580Z,72.31
2022-07-31T19:13:25.482Z,73.02
2022-07-31T19:15:53.265Z,73.57
2022-07-31T19:18:28.120Z,73.49
2022-07-31T19:21:17.969Z,74.01
2022-07-31T19:23:45.503Z,73.89
2022-07-31T19:26:12.132Z,74.78
2022-07-31T19:28:39.838Z,75.87
2022-07-31T19:31:07.107Z,76.28
2022-07-31T19:33:33.843Z,76.26
2022-07-31T19:36:02.663Z,75.89
2022-07-31T19:38:31.742Z,74.96
2022-07-31T19:40:58.600Z,74.38
2022-07-31T19:43:25.531Z,74.13
2022-07-31T19:46:09.645Z,74.25
2022-07-31T19:48:40.864Z,74.51
2022-07-31T19:51:08.134Z,74.28
2022-07-31T19:53:34.905Z,73.89
2022-07-31T19:56:05.380Z,74.18
2022-07-31T19:58:34.407Z,73.86
2022-07-31T20:01:01.026Z,74.22
2022-07-31T20:03:27.556Z,74.60
2022-07-31T20:05:54.144Z,74.22
2022-07-31T20:08:20.637Z,74.50
2022-07-31T20:10:47.112Z,74.32
2022-07-31T20:13:13.613Z,74.06
2022-07-31T20:15:49.646Z,73.86
2022-07-31T20:18:28.519Z,74.33
2022-07-31T20:20:58.131Z,74.87
2022-07-31T20:23:25.815Z,75.26
2022-07-31T20:25:52.690Z,75.57
2022-07-31T20:28:19.367Z,74.96
2022-07-31T20:30:45.999Z,75.45
2022-07-31T20:33:13.284Z,75.68
2022-07-31T20:35:48.718Z,75.92
2022-07-31T20:38:20.994Z,75.74
2022-07-31T20:40:53.726Z,75.87
2022-07-31T20:43:21.618Z,76.76
2022-07-31T20:45:48.335Z,77.13
2022-07-31T20:48:17.792Z,77.04
2022-07-31T20:50:48.044Z,76.94
2022-07-31T20:53:15.792Z,77.19
2022-07-31T20:55:47.231Z,78.02
2022-07-31T20:58:14.176Z,77.78
2022-07-31T21:00:41.543Z,77.79
2022-07-31T21:03:08.146Z,77.89
2022-07-31T21:05:34.782Z,78.10
2022-07-31T21:08:01.474Z,78.79
2022-07-31T21:10:29.647Z,79.53
2022-07-31T21:12:56.579Z,79.67
2022-07-31T21:15:42.867Z,80.67
2022-07-31T21:18:16.683Z,80.78
2022-07-31T21:20:51.709Z,81.23
2022-07-31T21:23:24.016Z,82.38
2022-07-31T21:25:56.146Z,83.04
2022-07-31T21:28:24.517Z,84.04
2022-07-31T21:30:53.829Z,84.46
2022-07-31T21:33:20.694Z,85.36
2022-07-31T21:35:47.650Z,85.10
2022-07-31T21:38:15.929Z,86.02
2022-07-31T21:40:43.287Z,85.80
2022-07-31T21:43:10.910Z,86.56
2022-07-31T21:45:50.286Z,86.21
2022-07-31T21:48:23.637Z,86.44
2022-07-31T21:50:50.862Z,87.02
2022-07-31T21:53:17.496Z,87.75
2022-07-31T21:55:44.252Z,87.73
2022-07-31T21:58:11.182Z,89.16
2022-07-31T22:00:38.264Z,88.68
2022-07-31T22:03:05.692Z,88.98
2022-07-31T22:05:51.657Z,89.93
2022-07-31T22:08:18.738Z,89.96
2022-07-31T22:10:45.601Z,90.09
2022-07-31T22:13:12.624Z,90.65
2022-07-31T22:15:52.761Z,89.31
2022-07-31T22:18:30.591Z,89.83
2022-07-31T22:20:58.570Z,89.46
2022-07-31T22:23:26.396Z,89.96
2022-07-31T22:25:53.548Z,89.67
2022-07-31T22:28:22.458Z,90.14
2022-07-31T22:30:49.738Z,90.39
2022-07-31T22:33:16.555Z,90.26
2022-07-31T22:35:43.584Z,90.20
2022-07-31T22:38:11.813Z,90.04
2022-07-31T22:40:38.818Z,89.90
2022-07-31T22:43:47.287Z,89.46
2022-07-31T22:45:53.938Z,90.13
2022-07-31T22:48:24.338Z,90.06
2022-07-31T22:50:51.055Z,89.65
2022-07-31T22:53:17.827Z,88.93
2022-07-31T22:55:44.511Z,88.72
2022-07-31T22:58:11.505Z,88.35
2022-07-31T23:00:38.495Z,88.54
2022-07-31T23:03:05.113Z,88.45
2022-07-31T23:06:12.239Z,87.60
2022-07-31T23:08:18.544Z,86.54
2022-07-31T23:10:45.211Z,86.40
2022-07-31T23:13:11.830Z,86.53
2022-07-31T23:15:38.318Z,86.54
2022-07-31T23:18:04.942Z,85.93
2022-07-31T23:20:31.575Z,87.54
2022-07-31T23:22:58.171Z,87.36
2022-07-31T23:25:24.796Z,87.13
2022-07-31T23:27:51.381Z,86.67
2022-07-31T23:30:17.958Z,87.06
2022-07-31T23:32:44.649Z,87.94
2022-07-31T23:35:11.357Z,88.06
2022-07-31T23:37:38.118Z,88.19
2022-07-31T23:40:05.415Z,88.31
2022-07-31T23:42:38.003Z,87.90
2022-07-31T23:45:11.391Z,88.35
2022-07-31T23:47:46.073Z,88.78
2022-07-31T23:50:14.575Z,88.66
2022-07-31T23:52:42.212Z,88.58
2022-07-31T23:55:09.564Z,88.78
2022-07-31T23:57:36.575Z,88.89
